Time;durP1;ratioP1;P1;durP2;ratioP2;P2;SDS_P1;SDS_P2;PMS_P1;PMS_P2;Temp;Humidity;BMP_temperature;BMP_pressure;BME280_temperature;BME280_humidity;BME280_pressure;Samples;Min_cycle;Max_cycle;Signal;HPM_P1;HPM_P2
2021/04/09 03:19:57;;;;;;;11.07;1.50;;;5.40;99.90;;;;;;5925608;23;20790;-93
2021/04/09 03:22:23;;;;;;;7.40;1.50;;;5.40;99.90;;;;;;4979413;28;20042;-93
2021/04/09 03:24:49;;;;;;;4.78;1.30;;;5.40;99.90;;;;;;4977743;28;20022;-92
2021/04/09 03:27:15;;;;;;;8.77;1.48;;;5.40;99.90;;;;;;4976992;28;20084;-92
2021/04/09 03:29:42;;;;;;;11.35;2.60;;;5.40;99.90;;;;;;4976539;28;20061;-94
2021/04/09 03:32:08;;;;;;;9.30;1.33;;;5.30;99.90;;;;;;4976967;28;20122;-95
2021/04/09 03:34:33;;;;;;;8.48;2.28;;;5.30;99.90;;;;;;4979164;28;20045;-92
2021/04/09 03:36:59;;;;;;;7.35;1.55;;;5.30;99.90;;;;;;4983951;28;20041;-93
2021/04/09 03:39:25;;;;;;;6.82;1.23;;;5.30;99.90;;;;;;4992440;28;20038;-94
2021/04/09 03:41:51;;;;;;;7.10;1.50;;;5.30;99.90;;;;;;4986089;28;20018;-93
2021/04/09 03:44:36;;;;;;;6.43;1.52;;;5.20;99.90;;;;;;4989528;28;20035;-94
2021/04/09 03:47:03;;;;;;;6.78;1.42;;;5.20;99.90;;;;;;4995741;28;20023;-93
2021/04/09 03:49:31;;;;;;;8.90;1.88;;;5.20;99.90;;;;;;4996286;28;20030;-94
2021/04/09 03:51:57;;;;;;;4.60;1.65;;;5.20;99.90;;;;;;4990266;28;20030;-93
2021/04/09 03:54:23;;;;;;;4.60;1.27;;;5.20;99.90;;;;;;4988606;28;20099;-94
2021/04/09 03:56:49;;;;;;;9.07;1.33;;;5.20;99.90;;;;;;4980030;28;20118;-94
2021/04/09 03:59:15;;;;;;;1.90;0.80;;;5.10;99.90;;;;;;4980669;28;20104;-93
2021/04/09 04:01:41;;;;;;;5.22;0.90;;;5.10;99.90;;;;;;4981231;28;20451;-93
2021/04/09 04:04:06;;;;;;;2.40;0.90;;;5.10;99.90;;;;;;4973056;28;20089;-92
2021/04/09 04:06:32;;;;;;;8.60;1.10;;;5.10;99.90;;;;;;4981237;28;20172;-92
2021/04/09 04:08:58;;;;;;;23.55;3.28;;;5.00;99.90;;;;;;4984313;28;20062;-95
2021/04/09 04:11:24;;;;;;;9.55;1.40;;;5.00;99.90;;;;;;4983321;28;20038;-93
2021/04/09 04:13:52;;;;;;;7.57;1.10;;;5.00;99.90;;;;;;4983675;28;20027;-96
2021/04/09 04:16:18;;;;;;;1.95;1.10;;;4.90;99.90;;;;;;4983993;28;20093;-90
2021/04/09 04:18:44;;;;;;;6.05;1.10;;;5.00;99.90;;;;;;4984550;28;20078;-96
2021/04/09 04:21:10;;;;;;;11.65;1.35;;;5.00;99.90;;;;;;4982658;28;20077;-95
2021/04/09 04:23:37;;;;;;;7.40;1.30;;;5.00;99.90;;;;;;4981797;28;20086;-94
2021/04/09 04:26:02;;;;;;;4.60;1.98;;;4.90;99.90;;;;;;4980438;28;20068;-93
2021/04/09 04:28:28;;;;;;;6.90;1.30;;;4.90;99.90;;;;;;4980424;28;20069;-94
2021/04/09 04:30:55;;;;;;;3.97;1.10;;;4.90;99.90;;;;;;4980136;28;20089;-93
2021/04/09 04:33:22;;;;;;;7.30;1.30;;;4.90;99.90;;;;;;4979571;28;20027;-95
2021/04/09 04:35:49;;;;;;;6.38;1.23;;;4.90;99.90;;;;;;4980995;28;20026;-94
2021/04/09 04:38:16;;;;;;;5.80;1.27;;;4.80;99.90;;;;;;4980075;28;20034;-93
2021/04/09 04:40:42;;;;;;;6.85;1.20;;;4.80;99.90;;;;;;4981198;28;20129;-93
2021/04/09 04:43:07;;;;;;;14.85;1.50;;;4.70;99.90;;;;;;4980158;28;20211;-94
2021/04/09 04:45:33;;;;;;;6.82;1.40;;;4.70;99.90;;;;;;4967975;28;20222;-94
2021/04/09 04:47:59;;;;;;;7.93;1.30;;;4.70;99.90;;;;;;4966299;28;20031;-93
2021/04/09 04:50:25;;;;;;;5.55;1.40;;;4.70;99.90;;;;;;4965728;28;20051;-94
2021/04/09 04:52:51;;;;;;;7.53;1.77;;;4.70;99.90;;;;;;4964839;28;20027;-95
2021/04/09 04:55:17;;;;;;;8.88;1.75;;;4.70;99.90;;;;;;4962369;28;20033;-94
2021/04/09 04:57:42;;;;;;;8.38;1.95;;;4.70;99.90;;;;;;4961031;28;20126;-95
2021/04/09 05:00:09;;;;;;;11.38;1.58;;;4.70;99.90;;;;;;4960256;28;20031;-94
2021/04/09 05:02:35;;;;;;;10.20;1.67;;;4.70;99.90;;;;;;4960533;28;20025;-93
2021/04/09 05:05:01;;;;;;;11.05;1.98;;;4.70;99.90;;;;;;4961819;28;20544;-95
2021/04/09 05:07:27;;;;;;;7.20;1.40;;;4.60;99.90;;;;;;4964262;28;20029;-94
2021/04/09 05:09:53;;;;;;;8.27;1.40;;;4.70;99.90;;;;;;4965417;28;20023;-94
2021/04/09 05:12:31;;;;;;;11.75;2.60;;;4.70;99.90;;;;;;4968639;28;20023;-93
2021/04/09 05:14:56;;;;;;;8.65;1.45;;;4.60;99.90;;;;;;4948978;28;20035;-93
2021/04/09 05:17:22;;;;;;;4.22;1.55;;;4.60;99.90;;;;;;4968369;28;20083;-94
2021/04/09 05:19:48;;;;;;;7.15;1.83;;;4.60;99.90;;;;;;4977953;28;20038;-94
2021/04/09 05:22:14;;;;;;;9.23;2.08;;;4.70;99.90;;;;;;4969096;28;20042;-95
2021/04/09 05:24:39;;;;;;;9.00;2.38;;;4.60;99.90;;;;;;4969546;28;20437;-93
2021/04/09 05:27:06;;;;;;;6.90;2.03;;;4.60;99.90;;;;;;4969607;28;20019;-95
2021/04/09 05:29:33;;;;;;;12.55;1.70;;;4.60;99.90;;;;;;4971673;28;20028;-95
2021/04/09 05:31:59;;;;;;;13.02;2.50;;;4.60;99.90;;;;;;4967209;28;20023;-93
2021/04/09 05:34:25;;;;;;;6.57;1.60;;;4.50;99.90;;;;;;4967379;28;20541;-94
2021/04/09 05:36:51;;;;;;;16.60;2.28;;;4.50;99.90;;;;;;4971543;28;20504;-94
2021/04/09 05:39:17;;;;;;;12.68;1.52;;;4.50;99.90;;;;;;4978413;28;20034;-94
2021/04/09 05:41:42;;;;;;;10.73;1.63;;;4.50;99.90;;;;;;4971929;28;20058;-95
2021/04/09 05:44:08;;;;;;;9.88;1.67;;;4.50;99.90;;;;;;4976383;28;20061;-93
2021/04/09 05:46:35;;;;;;;14.70;2.63;;;4.40;99.90;;;;;;4980698;28;20027;-95
2021/04/09 05:49:03;;;;;;;13.35;1.88;;;4.40;99.90;;;;;;4984215;28;20022;-96
2021/04/09 05:51:29;;;;;;;10.88;1.88;;;4.40;99.90;;;;;;4973388;28;20047;-94
2021/04/09 05:53:54;;;;;;;14.23;2.22;;;4.40;99.90;;;;;;4968602;28;20082;-94
2021/04/09 05:56:21;;;;;;;9.77;1.70;;;4.40;99.90;;;;;;4967184;28;20042;-94
2021/04/09 05:58:47;;;;;;;7.65;1.80;;;4.40;99.90;;;;;;4966759;28;20046;-95
2021/04/09 06:01:13;;;;;;;16.00;2.22;;;4.40;99.90;;;;;;4964885;28;20027;-93
2021/04/09 06:03:39;;;;;;;12.05;2.00;;;4.40;99.90;;;;;;4964519;28;20126;-93
2021/04/09 06:06:05;;;;;;;15.00;2.10;;;4.50;99.90;;;;;;4966780;28;20416;-92
2021/04/09 06:08:30;;;;;;;17.17;2.65;;;4.50;99.90;;;;;;4970495;28;20114;-91
2021/04/09 06:10:56;;;;;;;10.60;2.03;;;4.50;99.90;;;;;;4967576;28;20552;-92
2021/04/09 06:13:22;;;;;;;12.25;1.80;;;4.50;99.90;;;;;;4967221;28;20043;-95
2021/04/09 06:15:48;;;;;;;17.15;2.60;;;4.50;99.90;;;;;;4965359;28;20030;-95
2021/04/09 06:18:14;;;;;;;12.63;1.77;;;4.50;99.90;;;;;;4966023;28;20039;-94
2021/04/09 06:20:42;;;;;;;20.15;2.20;;;4.50;99.90;;;;;;4965143;28;20050;-95
2021/04/09 06:23:08;;;;;;;12.73;1.83;;;4.50;99.90;;;;;;4967453;28;20049;-96
2021/04/09 06:25:34;;;;;;;17.15;2.03;;;4.50;99.90;;;;;;4967671;28;20528;-94
2021/04/09 06:28:02;;;;;;;10.07;2.28;;;4.50;99.90;;;;;;4966159;28;20038;-94
2021/04/09 06:30:27;;;;;;;17.35;2.28;;;4.50;99.90;;;;;;4966599;28;20106;-94
2021/04/09 06:32:53;;;;;;;11.05;2.10;;;4.50;99.90;;;;;;4968194;28;20059;-95
2021/04/09 06:35:19;;;;;;;15.38;2.38;;;4.50;99.90;;;;;;4970372;28;20030;-94
2021/04/09 06:37:44;;;;;;;12.27;2.25;;;4.50;99.90;;;;;;4962551;28;20023;-93
2021/04/09 06:40:14;;;;;;;10.45;2.47;;;4.50;99.90;;;;;;4967940;28;20027;-95
2021/04/09 06:42:42;;;;;;;13.75;2.35;;;4.50;99.90;;;;;;4977834;28;20031;-93
2021/04/09 06:45:09;;;;;;;15.02;2.10;;;4.50;99.90;;;;;;4975482;28;20118;-93
2021/04/09 06:47:35;;;;;;;14.80;2.00;;;4.50;99.90;;;;;;4969569;28;20057;-94
2021/04/09 06:50:04;;;;;;;14.77;1.90;;;4.60;99.90;;;;;;4969113;28;20114;-94
2021/04/09 06:52:30;;;;;;;18.23;3.05;;;4.60;99.90;;;;;;4967457;28;20046;-94
2021/04/09 06:55:00;;;;;;;10.65;2.25;;;4.60;99.90;;;;;;4963966;28;20480;-94
2021/04/09 06:57:27;;;;;;;15.60;2.53;;;4.60;99.90;;;;;;4963650;28;20418;-95
2021/04/09 06:59:56;;;;;;;16.20;2.72;;;4.60;99.90;;;;;;4961067;28;20050;-93
2021/04/09 07:02:46;;;;;;;22.00;2.33;;;4.60;99.90;;;;;;4962777;28;20014;-92
2021/04/09 07:05:19;;;;;;;14.50;1.90;;;4.60;99.90;;;;;;4964951;28;20213;-92
2021/04/09 07:07:45;;;;;;;11.57;2.00;;;4.70;99.90;;;;;;4964726;28;20042;-93
2021/04/09 07:10:15;;;;;;;12.20;2.38;;;4.80;99.90;;;;;;4969475;28;20023;-93
2021/04/09 07:12:44;;;;;;;31.45;3.80;;;4.90;99.90;;;;;;4964420;28;20493;-91
2021/04/09 07:15:16;;;;;;;12.73;2.05;;;5.00;99.90;;;;;;4964777;28;20504;-93
2021/04/09 07:21:20;;;;;;;19.75;2.83;;;5.10;99.90;;;;;;4973143;28;20519;-94
2021/04/09 07:23:49;;;;;;;10.90;2.22;;;5.10;99.90;;;;;;4971295;28;20030;-93
2021/04/09 07:26:41;;;;;;;23.98;2.85;;;5.20;99.90;;;;;;4967242;28;20042;-92
2021/04/09 07:29:08;;;;;;;14.18;2.42;;;5.20;99.90;;;;;;4971525;28;20037;-93
2021/04/09 07:31:33;;;;;;;7.65;2.22;;;5.20;99.90;;;;;;4969986;28;20038;-91
2021/04/09 07:33:59;;;;;;;16.23;2.40;;;5.30;99.90;;;;;;4970290;28;20026;-93
2021/04/09 07:36:25;;;;;;;8.57;1.90;;;5.30;99.90;;;;;;4973191;28;20114;-94
2021/04/09 07:38:52;;;;;;;18.48;2.97;;;5.40;99.90;;;;;;4972534;28;20042;-94
2021/04/09 07:41:18;;;;;;;14.85;3.55;;;5.50;99.90;;;;;;4974424;28;20049;-94
2021/04/09 07:43:45;;;;;;;17.85;3.15;;;5.50;99.90;;;;;;4973858;28;20057;-94
2021/04/09 07:46:31;;;;;;;16.98;3.53;;;5.50;99.90;;;;;;4968120;28;20025;-93
2021/04/09 07:49:05;;;;;;;13.20;2.47;;;5.50;99.90;;;;;;4994622;28;20034;-93
2021/04/09 07:51:31;;;;;;;28.80;3.05;;;5.60;99.90;;;;;;4970541;28;20431;-94
2021/04/09 07:54:12;;;;;;;12.63;2.47;;;5.60;99.90;;;;;;4969964;28;20077;-94
2021/04/09 07:56:49;;;;;;;12.30;2.58;;;5.60;99.90;;;;;;4967185;28;20486;-93
2021/04/09 07:59:38;;;;;;;12.18;2.58;;;5.70;99.90;;;;;;4967673;28;20042;-92
2021/04/09 08:04:42;;;;;;;18.98;4.43;;;5.70;99.90;;;;;;4949806;28;20022;-95
2021/04/09 08:07:31;;;;;;;17.58;4.15;;;5.70;99.90;;;;;;4966609;28;20468;-93
2021/04/09 08:09:57;;;;;;;23.05;4.65;;;5.70;99.90;;;;;;4969394;28;20030;-94
2021/04/09 08:12:30;;;;;;;19.23;4.45;;;5.80;99.90;;;;;;4970083;28;20111;-95
2021/04/09 08:15:10;;;;;;;20.60;3.00;;;5.80;99.90;;;;;;4972201;28;20038;-94
2021/04/09 08:17:36;;;;;;;17.00;3.28;;;5.90;99.90;;;;;;4969275;28;20106;-93
2021/04/09 08:20:12;;;;;;;16.17;4.00;;;6.00;99.90;;;;;;4969144;28;20030;-94
2021/04/09 08:22:39;;;;;;;18.67;3.35;;;6.00;99.90;;;;;;4975098;28;20043;-94
2021/04/09 08:25:07;;;;;;;15.98;2.97;;;6.00;99.90;;;;;;4968938;28;20026;-94
2021/04/09 08:27:34;;;;;;;15.80;4.40;;;6.00;99.90;;;;;;4969855;28;20086;-94
2021/04/09 08:30:01;;;;;;;17.58;4.80;;;6.10;99.90;;;;;;4976172;28;20029;-95
2021/04/09 08:32:27;;;;;;;18.60;4.22;;;6.20;99.90;;;;;;4970050;28;20014;-94
2021/04/09 08:34:54;;;;;;;23.25;4.47;;;6.30;99.90;;;;;;4967641;28;20086;-95
2021/04/09 08:37:21;;;;;;;14.27;4.28;;;6.40;99.90;;;;;;4966680;28;20030;-94
2021/04/09 08:39:46;;;;;;;20.50;4.22;;;6.50;99.90;;;;;;4973792;28;20503;-94
2021/04/09 08:42:15;;;;;;;16.73;4.20;;;6.60;99.90;;;;;;4974155;28;20106;-95
2021/04/09 08:44:41;;;;;;;25.40;5.70;;;6.70;99.90;;;;;;4976188;28;20101;-95
2021/04/09 08:47:20;;;;;;;16.95;3.80;;;6.80;99.90;;;;;;4978966;28;20085;-95
2021/04/09 08:49:47;;;;;;;14.05;4.63;;;7.00;99.90;;;;;;4982056;28;20030;-94
2021/04/09 08:52:15;;;;;;;18.10;4.03;;;7.00;99.90;;;;;;4977620;28;20019;-96
2021/04/09 08:54:55;;;;;;;19.02;4.60;;;7.10;99.90;;;;;;4979019;28;20043;-95
2021/04/09 08:57:36;;;;;;;14.85;3.90;;;7.10;99.90;;;;;;4975854;28;20022;-92
2021/04/09 09:00:13;;;;;;;10.63;3.72;;;7.10;99.90;;;;;;4974048;28;20404;-94
2021/04/09 09:02:55;;;;;;;21.77;4.80;;;7.20;99.90;;;;;;4975132;28;20038;-95
2021/04/09 09:05:33;;;;;;;16.33;3.72;;;7.10;99.90;;;;;;4965452;28;20022;-92
2021/04/09 09:08:03;;;;;;;17.48;3.58;;;7.00;99.90;;;;;;4970762;28;20030;-93
2021/04/09 09:10:32;;;;;;;21.50;4.38;;;7.00;99.90;;;;;;4968492;28;20031;-95
2021/04/09 09:13:04;;;;;;;21.80;4.03;;;7.00;99.90;;;;;;4971040;28;20388;-92
2021/04/09 09:15:56;;;;;;;20.10;4.00;;;7.00;99.90;;;;;;4967621;28;20085;-90
2021/04/09 09:18:22;;;;;;;27.63;4.07;;;7.10;99.90;;;;;;4968063;28;20404;-91
2021/04/09 09:21:01;;;;;;;17.60;3.70;;;7.30;99.90;;;;;;4962459;28;20049;-93
2021/04/09 09:23:43;;;;;;;16.92;3.67;;;7.30;99.90;;;;;;4963125;28;20038;-91
2021/04/09 09:26:35;;;;;;;16.63;3.53;;;7.40;99.90;;;;;;4977386;28;20515;-92
2021/04/09 09:29:27;;;;;;;20.17;3.40;;;7.50;99.90;;;;;;4971582;28;20023;-95
2021/04/09 09:31:59;;;;;;;23.95;3.67;;;7.70;99.90;;;;;;4965158;28;20071;-94
2021/04/09 09:34:25;;;;;;;20.35;3.45;;;7.80;99.90;;;;;;4969640;28;20088;-95
2021/04/09 09:37:15;;;;;;;19.95;4.28;;;7.90;99.90;;;;;;4973979;28;20031;-93
2021/04/09 09:40:06;;;;;;;21.42;3.80;;;8.10;99.90;;;;;;4974186;28;20030;-91
2021/04/09 09:42:36;;;;;;;16.30;3.30;;;8.30;99.90;;;;;;4973737;28;20031;-94
2021/04/09 09:45:06;;;;;;;16.90;4.03;;;8.50;99.90;;;;;;4985796;28;20117;-92
2021/04/09 09:47:41;;;;;;;14.25;3.45;;;8.60;99.90;;;;;;4955284;28;20081;-94
2021/04/09 09:50:11;;;;;;;13.95;4.13;;;8.70;99.90;;;;;;4966719;28;20032;-95
2021/04/09 09:55:38;;;;;;;13.13;2.35;;;8.80;99.90;;;;;;4984815;28;20046;-94
2021/04/09 09:58:18;;;;;;;15.15;2.70;;;8.80;99.30;;;;;;4985959;28;20042;-93
2021/04/09 10:00:54;;;;;;;10.03;2.20;;;8.70;98.30;;;;;;4969678;28;20125;-93
2021/04/09 10:03:28;;;;;;;17.17;2.83;;;8.50;97.30;;;;;;4961617;28;20030;-94
2021/04/09 10:06:08;;;;;;;13.43;2.20;;;8.40;97.40;;;;;;4979574;28;20022;-92
2021/04/09 10:08:36;;;;;;;11.70;2.38;;;8.30;97.40;;;;;;4968316;28;20029;-95
2021/04/09 10:11:08;;;;;;;13.13;2.53;;;8.20;97.50;;;;;;4968861;28;20030;-93
2021/04/09 10:13:39;;;;;;;9.25;2.25;;;8.10;97.80;;;;;;4982487;28;20027;-94
2021/04/09 10:16:12;;;;;;;12.73;2.65;;;8.10;98.20;;;;;;4966670;28;20139;-94
2021/04/09 10:18:40;;;;;;;10.80;2.50;;;7.90;98.50;;;;;;4970892;28;20042;-92
2021/04/09 10:21:27;;;;;;;8.73;2.30;;;7.80;98.80;;;;;;5004573;28;20046;-93
2021/04/09 10:24:13;;;;;;;15.98;2.92;;;7.80;99.40;;;;;;5004984;28;20062;-92
2021/04/09 10:26:42;;;;;;;16.10;3.40;;;7.80;99.80;;;;;;4983508;28;20109;-94
2021/04/09 10:29:37;;;;;;;16.10;3.53;;;7.70;99.90;;;;;;4961588;28;20031;-93
2021/04/09 10:32:13;;;;;;;16.58;3.45;;;7.70;99.90;;;;;;4950577;28;20100;-90
2021/04/09 10:34:38;;;;;;;17.48;4.40;;;7.70;99.90;;;;;;4987572;28;20030;-92
2021/04/09 10:37:06;;;;;;;17.48;3.50;;;7.80;99.90;;;;;;4985771;28;20373;-91
2021/04/09 10:39:33;;;;;;;13.90;3.30;;;7.80;99.90;;;;;;4983669;28;20038;-90
2021/04/09 10:42:03;;;;;;;15.25;3.63;;;7.80;99.90;;;;;;4968216;28;20117;-92
2021/04/09 10:44:31;;;;;;;13.75;3.90;;;7.80;99.90;;;;;;4966194;28;20113;-92
2021/04/09 10:46:59;;;;;;;20.90;3.85;;;7.70;99.90;;;;;;4971298;28;20510;-91
2021/04/09 10:49:27;;;;;;;20.83;4.75;;;7.70;99.90;;;;;;4973599;28;20120;-92
2021/04/09 10:51:55;;;;;;;19.08;3.88;;;7.70;99.90;;;;;;4978278;28;20023;-92
2021/04/09 10:54:24;;;;;;;12.90;3.95;;;7.70;99.90;;;;;;4964956;28;20034;-92
2021/04/09 10:56:57;;;;;;;17.33;3.67;;;7.70;99.90;;;;;;4961206;28;20488;-90
2021/04/09 10:59:30;;;;;;;18.73;3.40;;;7.70;99.90;;;;;;4960257;28;20041;-91
2021/04/09 11:01:57;;;;;;;15.20;3.45;;;7.80;99.90;;;;;;4967603;28;20497;-92
2021/04/09 11:04:28;;;;;;;21.83;3.35;;;7.80;99.90;;;;;;4977114;28;20105;-91
2021/04/09 11:06:57;;;;;;;18.67;3.72;;;7.70;99.90;;;;;;4976947;28;20035;-95
2021/04/09 11:09:41;;;;;;;16.33;3.65;;;7.70;99.90;;;;;;4978781;28;20026;-91
2021/04/09 11:12:26;;;;;;;12.32;3.25;;;7.80;99.90;;;;;;4996467;28;20108;-92
2021/04/09 11:15:06;;;;;;;20.80;4.85;;;7.80;99.90;;;;;;4976134;28;20089;-92
2021/04/09 11:17:32;;;;;;;17.58;3.58;;;7.90;99.90;;;;;;4974389;28;20028;-91
2021/04/09 11:19:59;;;;;;;14.57;3.35;;;8.20;99.90;;;;;;4970226;28;20125;-90
2021/04/09 11:22:27;;;;;;;17.33;3.03;;;8.40;99.90;;;;;;4957875;28;20062;-92
2021/04/09 11:24:57;;;;;;;11.68;2.97;;;8.70;99.90;;;;;;4967468;28;20038;-91
2021/04/09 11:27:25;;;;;;;18.27;2.75;;;8.80;99.40;;;;;;4968583;28;20283;-91
2021/04/09 11:30:04;;;;;;;14.27;2.53;;;8.90;98.60;;;;;;4958155;28;20224;-92
2021/04/09 11:32:38;;;;;;;16.80;2.95;;;9.00;98.30;;;;;;4958377;28;20084;-91
2021/04/09 11:35:08;;;;;;;13.35;2.35;;;8.90;97.60;;;;;;4975320;28;20022;-91
2021/04/09 11:37:47;;;;;;;13.95;2.58;;;9.00;97.20;;;;;;4958190;28;20037;-92
2021/04/09 11:40:16;;;;;;;13.15;2.40;;;9.10;96.60;;;;;;4975407;28;20441;-90
2021/04/09 11:42:42;;;;;;;11.82;2.28;;;9.10;95.90;;;;;;4957736;28;20023;-91
2021/04/09 11:45:11;;;;;;;10.68;2.30;;;9.20;95.50;;;;;;4958094;28;20038;-92
2021/04/09 11:47:40;;;;;;;10.98;2.40;;;9.20;95.00;;;;;;4968461;28;20053;-92
2021/04/09 11:50:23;;;;;;;9.73;2.70;;;9.20;95.10;;;;;;4977584;28;20033;-94
2021/04/09 11:53:01;;;;;;;14.48;3.50;;;9.10;95.30;;;;;;4977976;28;20387;-93
2021/04/09 11:55:35;;;;;;;17.17;3.58;;;9.10;95.20;;;;;;4994640;28;20114;-93
2021/04/09 11:58:01;;;;;;;10.35;2.72;;;9.20;95.30;;;;;;4977267;28;20030;-94
2021/04/09 12:00:31;;;;;;;9.10;2.42;;;9.20;94.90;;;;;;4976720;28;20550;-92
2021/04/09 12:03:01;;;;;;;7.13;2.03;;;9.30;94.60;;;;;;4967119;28;20030;-92
2021/04/09 12:05:29;;;;;;;6.97;2.00;;;9.50;94.60;;;;;;4959840;28;20054;-89
2021/04/09 12:08:00;;;;;;;12.70;2.25;;;9.60;94.20;;;;;;4961371;28;20119;-91
2021/04/09 12:10:28;;;;;;;9.77;2.17;;;9.60;94.10;;;;;;4964853;28;20038;-90
2021/04/09 12:12:54;;;;;;;11.77;2.60;;;9.70;93.10;;;;;;4969655;28;20026;-92
2021/04/09 12:15:22;;;;;;;18.92;2.72;;;9.60;92.70;;;;;;4964048;28;20030;-91
2021/04/09 12:17:48;;;;;;;17.47;3.33;;;9.80;92.80;;;;;;4977077;28;20044;-92
2021/04/09 12:20:18;;;;;;;21.08;2.95;;;10.00;92.90;;;;;;4979570;28;20081;-91
2021/04/09 12:22:45;;;;;;;8.70;2.03;;;10.30;92.60;;;;;;4979759;28;20023;-91
2021/04/09 12:25:12;;;;;;;8.25;2.33;;;10.50;91.60;;;;;;4974453;28;20114;-91
2021/04/09 12:27:38;;;;;;;14.52;3.28;;;10.70;90.80;;;;;;4961792;28;20121;-93
2021/04/09 12:30:09;;;;;;;9.00;2.72;;;10.70;88.20;;;;;;4960593;28;20033;-92
2021/04/09 12:32:35;;;;;;;16.30;3.05;;;10.80;88.60;;;;;;4960647;28;20073;-92
2021/04/09 12:35:01;;;;;;;12.07;3.28;;;11.10;89.00;;;;;;4981385;28;20023;-92
2021/04/09 12:37:27;;;;;;;13.43;3.00;;;11.10;88.30;;;;;;4969161;28;20480;-93
2021/04/09 12:39:53;;;;;;;13.85;2.88;;;11.10;87.20;;;;;;4980263;28;20038;-93
2021/04/09 12:42:19;;;;;;;7.47;2.45;;;10.90;87.20;;;;;;4980343;28;20085;-93
2021/04/09 12:44:46;;;;;;;7.95;2.20;;;10.70;87.50;;;;;;4980684;28;20057;-92
2021/04/09 12:47:12;;;;;;;5.20;1.55;;;10.50;88.50;;;;;;4970150;28;20030;-95
2021/04/09 12:49:38;;;;;;;11.95;2.00;;;10.30;89.10;;;;;;4995659;28;20030;-92
2021/04/09 12:52:05;;;;;;;7.43;1.98;;;10.20;90.00;;;;;;4976668;28;20137;-91
2021/04/09 12:54:31;;;;;;;5.43;1.95;;;10.10;90.20;;;;;;4979037;28;20032;-92
2021/04/09 12:56:57;;;;;;;12.35;2.58;;;10.00;90.40;;;;;;4978564;28;20034;-93
2021/04/09 12:59:23;;;;;;;6.85;2.70;;;10.00;90.40;;;;;;4990422;28;20038;-93
2021/04/09 13:01:51;;;;;;;5.82;2.10;;;10.00;90.70;;;;;;4969857;28;20520;-93
2021/04/09 13:04:17;;;;;;;8.85;2.00;;;9.90;90.40;;;;;;4979008;28;20036;-94
2021/04/09 13:06:43;;;;;;;4.82;1.80;;;9.90;90.20;;;;;;4980965;28;20030;-94
2021/04/09 13:09:08;;;;;;;8.55;3.05;;;9.90;89.10;;;;;;4980522;28;20033;-93
2021/04/09 13:11:35;;;;;;;13.20;3.85;;;9.90;89.50;;;;;;4971271;28;20023;-94
2021/04/09 13:14:01;;;;;;;6.88;2.50;;;9.90;89.10;;;;;;4967169;28;20086;-93
2021/04/09 13:16:27;;;;;;;5.60;2.15;;;10.00;89.40;;;;;;4970904;28;20105;-92
2021/04/09 13:18:53;;;;;;;8.23;2.83;;;10.10;89.20;;;;;;4976663;28;20038;-94
2021/04/09 13:21:19;;;;;;;7.65;2.17;;;10.30;89.20;;;;;;4976062;28;20049;-94
2021/04/09 13:23:45;;;;;;;10.38;2.40;;;10.30;87.90;;;;;;4969331;28;20050;-94
2021/04/09 13:26:14;;;;;;;10.70;2.85;;;10.30;87.20;;;;;;4986407;28;20105;-92
2021/04/09 13:28:39;;;;;;;11.60;2.50;;;10.50;87.70;;;;;;4992975;28;20060;-94
2021/04/09 13:31:05;;;;;;;8.40;2.25;;;10.60;87.70;;;;;;4966771;28;20050;-93
2021/04/09 13:33:38;;;;;;;11.18;2.30;;;10.70;86.10;;;;;;4967204;28;20026;-93
2021/04/09 13:36:11;;;;;;;13.20;2.65;;;10.70;85.60;;;;;;4969674;28;20018;-93
2021/04/09 13:38:37;;;;;;;13.30;1.95;;;10.90;85.40;;;;;;4967768;28;20035;-93
2021/04/09 13:41:06;;;;;;;6.05;1.40;;;11.00;84.30;;;;;;4962836;28;20118;-93
2021/04/09 13:43:32;;;;;;;4.35;0.80;;;11.10;83.40;;;;;;4978559;28;20054;-93
2021/04/09 13:46:01;;;;;;;8.32;1.13;;;11.10;81.20;;;;;;4960989;28;20031;-93
2021/04/09 13:48:34;;;;;;;8.75;1.52;;;11.00;80.00;;;;;;4970353;28;20023;-93
2021/04/09 13:51:00;;;;;;;7.60;1.15;;;10.90;78.40;;;;;;4975869;28;20468;-93
2021/04/09 13:53:25;;;;;;;7.32;1.40;;;10.90;78.20;;;;;;4958410;28;20081;-92
2021/04/09 13:55:51;;;;;;;4.03;1.40;;;10.90;78.30;;;;;;4960803;28;20034;-92
2021/04/09 13:58:17;;;;;;;6.53;1.50;;;11.00;78.50;;;;;;4977622;28;20035;-92
2021/04/09 14:00:49;;;;;;;4.07;1.00;;;11.10;77.60;;;;;;4971147;28;20045;-94
2021/04/09 14:03:14;;;;;;;3.53;0.95;;;11.00;76.10;;;;;;4990021;28;20023;-93
2021/04/09 14:05:40;;;;;;;7.97;1.65;;;10.90;75.60;;;;;;4975793;28;20041;-92
2021/04/09 14:08:06;;;;;;;3.63;1.10;;;10.90;76.00;;;;;;4972568;28;20034;-93
2021/04/09 14:10:32;;;;;;;9.27;1.20;;;10.90;76.00;;;;;;4969007;28;20468;-93
2021/04/09 14:12:58;;;;;;;4.00;1.10;;;10.90;75.90;;;;;;4972278;28;20492;-93
2021/04/09 14:15:24;;;;;;;4.43;1.02;;;10.90;75.20;;;;;;4987218;28;20062;-93
2021/04/09 14:17:51;;;;;;;5.43;1.30;;;10.90;75.30;;;;;;4970123;28;20038;-93
2021/04/09 14:20:22;;;;;;;1.70;1.02;;;10.80;75.20;;;;;;4969204;28;20036;-93
2021/04/09 14:22:49;;;;;;;6.10;1.60;;;10.80;75.20;;;;;;4971936;28;20484;-94
2021/04/09 14:25:16;;;;;;;6.25;1.13;;;10.70;75.40;;;;;;4971216;28;20114;-93
2021/04/09 14:27:45;;;;;;;2.25;0.65;;;10.70;75.90;;;;;;4987633;28;20033;-95
2021/04/09 14:30:18;;;;;;;4.05;0.85;;;10.60;75.30;;;;;;4972913;28;20392;-93
2021/04/09 14:32:45;;;;;;;2.70;0.65;;;10.50;75.10;;;;;;4969765;28;20026;-94
2021/04/09 14:35:11;;;;;;;4.45;0.68;;;10.50;74.50;;;;;;4970955;28;20022;-94
2021/04/09 14:37:40;;;;;;;1.33;0.50;;;10.40;74.00;;;;;;4983669;28;20042;-92
2021/04/09 14:40:08;;;;;;;3.33;0.90;;;10.40;73.50;;;;;;4960757;28;20046;-92
2021/04/09 14:42:36;;;;;;;3.85;0.75;;;10.40;72.60;;;;;;4960621;28;20112;-94
2021/04/09 14:45:05;;;;;;;1.00;0.70;;;10.30;72.30;;;;;;4993473;28;20491;-95
2021/04/09 14:47:30;;;;;;;2.03;0.80;;;10.30;71.80;;;;;;5008241;28;20034;-93
2021/04/09 14:49:56;;;;;;;3.50;0.68;;;10.50;71.40;;;;;;5002000;28;20031;-95
2021/04/09 14:52:22;;;;;;;3.05;0.82;;;10.70;72.00;;;;;;4994312;28;20022;-93
2021/04/09 14:54:49;;;;;;;3.10;0.88;;;10.90;70.60;;;;;;5011239;28;20042;-94
2021/04/09 14:57:15;;;;;;;4.40;1.00;;;11.20;70.20;;;;;;5014627;28;20026;-94
2021/04/09 14:59:40;;;;;;;1.48;0.63;;;11.20;68.80;;;;;;4992059;28;20037;-94
2021/04/09 15:02:08;;;;;;;3.22;0.98;;;11.20;68.20;;;;;;4979086;28;20784;-93
2021/04/09 15:04:33;;;;;;;2.67;0.50;;;11.10;67.80;;;;;;4958022;28;20099;-93
2021/04/09 15:06:59;;;;;;;2.53;0.63;;;11.10;68.70;;;;;;4960012;28;20054;-94
2021/04/09 15:09:25;;;;;;;5.68;0.80;;;10.90;66.80;;;;;;4960128;28;20373;-92
2021/04/09 15:11:50;;;;;;;2.22;0.80;;;10.90;67.00;;;;;;4959996;28;20030;-94
2021/04/09 15:14:16;;;;;;;4.03;0.80;;;10.80;67.30;;;;;;4977493;28;20023;-94
2021/04/09 15:16:42;;;;;;;2.42;0.95;;;10.60;66.70;;;;;;4961011;28;20033;-95
2021/04/09 15:19:07;;;;;;;2.63;0.77;;;10.50;66.80;;;;;;4981137;28;20385;-94
2021/04/09 15:21:34;;;;;;;4.20;1.30;;;10.30;67.70;;;;;;4965189;28;20030;-95
2021/04/09 15:24:02;;;;;;;1.48;0.90;;;10.30;67.50;;;;;;4968894;28;20062;-92
2021/04/09 15:26:28;;;;;;;5.35;1.10;;;10.30;68.60;;;;;;4962712;28;20393;-93
2021/04/09 15:28:53;;;;;;;5.93;1.30;;;10.30;68.10;;;;;;4959060;28;20019;-92
2021/04/09 15:31:19;;;;;;;1.65;0.80;;;10.30;68.20;;;;;;4959681;28;20031;-96
2021/04/09 15:33:45;;;;;;;4.53;0.95;;;10.30;68.50;;;;;;4959118;28;20031;-94
2021/04/09 15:36:10;;;;;;;6.10;2.00;;;10.40;68.80;;;;;;4958831;28;20030;-93
2021/04/09 15:38:36;;;;;;;5.47;2.05;;;10.50;68.80;;;;;;4959232;28;20046;-93
2021/04/09 15:41:04;;;;;;;10.32;3.15;;;10.60;69.30;;;;;;4958979;28;20098;-93
2021/04/09 15:43:31;;;;;;;6.32;1.83;;;10.70;68.70;;;;;;4960062;28;20026;-93
2021/04/09 15:45:57;;;;;;;5.55;1.40;;;10.80;68.40;;;;;;4959426;28;20023;-94
2021/04/09 15:48:25;;;;;;;8.45;2.47;;;10.80;68.10;;;;;;4974556;28;20550;-95
2021/04/09 15:50:50;;;;;;;6.03;1.83;;;10.80;68.00;;;;;;4977783;28;20081;-95
2021/04/09 15:53:17;;;;;;;3.20;0.93;;;10.80;67.80;;;;;;4970978;28;20031;-93
2021/04/09 15:55:43;;;;;;;4.60;1.50;;;10.80;67.60;;;;;;4970297;28;20458;-94
2021/04/09 15:58:09;;;;;;;3.75;0.95;;;10.80;67.20;;;;;;4965063;28;20480;-95
2021/04/09 16:00:39;;;;;;;4.35;1.98;;;10.80;67.00;;;;;;4962697;28;20081;-94
2021/04/09 16:03:05;;;;;;;2.47;0.95;;;10.70;66.80;;;;;;4967175;28;20018;-95
2021/04/09 16:05:31;;;;;;;3.30;1.25;;;10.70;66.50;;;;;;4968405;28;20173;-94
2021/04/09 16:07:57;;;;;;;2.20;1.33;;;10.70;65.90;;;;;;4964996;28;20023;-92
2021/04/09 16:10:25;;;;;;;2.25;0.70;;;10.60;65.60;;;;;;4971674;28;20044;-95
2021/04/09 16:12:51;;;;;;;3.70;1.20;;;10.60;65.70;;;;;;4972656;28;20078;-94
2021/04/09 16:15:19;;;;;;;5.93;1.27;;;10.60;65.10;;;;;;4969069;28;20392;-94
2021/04/09 16:17:45;;;;;;;4.20;1.10;;;10.50;64.90;;;;;;4968891;28;20019;-94
2021/04/09 16:20:15;;;;;;;2.33;0.75;;;10.50;64.90;;;;;;4968762;28;20026;-95
2021/04/09 16:22:41;;;;;;;6.13;1.00;;;10.50;64.90;;;;;;4968122;28;20069;-94
2021/04/09 16:25:15;;;;;;;4.10;0.88;;;10.50;64.90;;;;;;4970020;28;20067;-94